Time,TemperatureF,DewpointF,PressureIn,WindDirection,WindDirectionDegrees,WindSpeedMPH,WindSpeedGustMPH,Humidity,HourlyPrecipIn,Conditions,Clouds,dailyrainin,SoftwareType,DateUTC
2013-09-16 00:02:00,49.5,49.0,30.19,NE,51,1.0,14.0,98,0.00,,,0.01,Wunderground v.1.15,2013-09-16 05:02:00,
2013-09-16 00:08:00,50.5,50.2,30.19,NE,46,2.0,14.0,99,0.00,,,0.00,Wunderground v.1.15,2013-09-16 05:08:00,
2013-09-16 00:11:00,51.1,50.8,30.19,NE,55,2.0,3.0,99,0.00,,,0.00,Wunderground v.1.15,2013-09-16 05:11:00,
2013-09-16 00:13:00,51.2,50.9,30.19,NE,55,2.0,3.0,99,0.00,,,0.00,Wunderground v.1.15,2013-09-16 05:13:00,
2013-09-16 00:15:00,51.3,51.0,30.19,NE,34,2.0,3.0,99,0.00,,,0.00,Wunderground v.1.15,2013-09-16 05:15:00,
2013-09-16 00:22:00,51.3,51.0,30.19,NE,49,2.0,2.0,99,0.00,,,0.00,Wunderground v.1.15,2013-09-16 05:22:00,
2013-09-16 00:24:00,51.2,50.7,30.19,NE,50,1.0,3.0,98,0.00,,,0.00,Wunderground v.1.15,2013-09-16 05:24:00,
2013-09-16 00:29:00,51.2,50.7,30.20,ENE,58,1.0,3.0,98,0.00,,,0.00,Wunderground v.1.15,2013-09-16 05:29:00,
2013-09-16 00:31:00,51.2,50.7,30.20,ENE,58,1.0,3.0,98,0.00,,,0.00,Wunderground v.1.15,2013-09-16 05:31:00,
2013-09-16 00:33:00,51.2,50.7,30.20,NE,44,2.0,3.0,98,0.00,,,0.00,Wunderground v.1.15,2013-09-16 05:33:00,
2013-09-16 00:35:00,51.1,50.6,30.20,NE,53,1.0,3.0,98,0.00,,,0.00,Wunderground v.1.15,2013-09-16 05:35:00,
2013-09-16 00:37:00,51.2,50.7,30.20,NE,34,2.0,3.0,98,0.00,,,0.00,Wunderground v.1.15,2013-09-16 05:37:00,
2013-09-16 00:40:00,51.3,50.8,30.20,NE,37,2.0,2.0,98,0.00,,,0.00,Wunderground v.1.15,2013-09-16 05:40:00,
2013-09-16 00:42:00,51.2,50.7,30.20,NE,43,2.0,2.0,98,0.00,,,0.00,Wunderground v.1.15,2013-09-16 05:42:00,
2013-09-16 00:44:00,51.2,50.7,30.20,NE,41,2.0,2.0,98,0.00,,,0.00,Wunderground v.1.15,2013-09-16 05:44:00,
2013-09-16 00:46:00,51.1,50.6,30.20,NE,36,2.0,2.0,98,0.00,,,0.00,Wunderground v.1.15,2013-09-16 05:46:00,
2013-09-16 00:50:00,51.0,50.2,30.20,NNE,30,2.0,2.0,97,0.00,,,0.00,Wunderground v.1.15,2013-09-16 05:50:00,
2013-09-16 00:51:00,51.0,50.5,30.20,NE,36,2.0,2.0,98,0.00,,,0.00,Wunderground v.1.15,2013-09-16 05:51:00,
2013-09-16 00:53:00,50.9,50.1,30.20,NE,43,1.0,2.0,97,0.00,,,0.00,Wunderground v.1.15,2013-09-16 05:53:00,
2013-09-16 00:57:00,50.9,50.1,30.20,NE,45,1.0,2.0,97,0.00,,,0.00,Wunderground v.1.15,2013-09-16 05:57:00,
2013-09-16 01:00:00,50.8,50.0,30.20,NE,50,1.0,2.0,97,0.00,,,0.00,Wunderground v.1.15,2013-09-16 06:00:00,
2013-09-16 01:02:00,50.8,50.0,30.20,NE,46,1.0,3.0,97,0.00,,,0.00,Wunderground v.1.15,2013-09-16 06:02:00,
2013-09-16 01:06:00,50.9,50.4,30.20,NE,53,2.0,3.0,98,0.00,,,0.00,Wunderground v.1.15,2013-09-16 06:06:00,
2013-09-16 01:08:00,50.8,50.3,30.20,NE,39,2.0,3.0,98,0.00,,,0.00,Wunderground v.1.15,2013-09-16 06:08:00,
2013-09-16 01:10:00,50.8,50.0,30.20,NE,49,2.0,2.0,97,0.00,,,0.00,Wunderground v.1.15,2013-09-16 06:10:00,
2013-09-16 01:12:00,50.8,50.0,30.20,NE,49,2.0,3.0,97,0.00,,,0.00,Wunderground v.1.15,2013-09-16 06:12:00,
2013-09-16 01:13:00,50.8,50.3,30.20,NE,44,2.0,3.0,98,0.00,,,0.00,Wunderground v.1.15,2013-09-16 06:13:00,
2013-09-16 01:15:00,50.8,50.0,30.20,NE,53,2.0,3.0,97,0.00,,,0.00,Wunderground v.1.15,2013-09-16 06:15:00,
2013-09-16 01:17:00,50.8,50.0,30.20,NE,55,2.0,3.0,97,0.00,,,0.00,Wunderground v.1.15,2013-09-16 06:17:00,
2013-09-16 01:19:00,50.8,50.0,30.20,NE,49,2.0,3.0,97,0.00,,,0.00,Wunderground v.1.15,2013-09-16 06:19:00,
2013-09-16 01:22:00,50.8,50.0,30.20,NE,54,1.0,3.0,97,0.00,,,0.00,Wunderground v.1.15,2013-09-16 06:22:00,
2013-09-16 01:26:00,51.0,50.5,30.21,NE,56,2.0,4.0,98,0.00,,,0.00,Wunderground v.1.15,2013-09-16 06:26:00,
2013-09-16 01:28:00,51.1,50.6,30.21,NE,55,2.0,4.0,98,0.00,,,0.00,Wunderground v.1.15,2013-09-16 06:28:00,
2013-09-16 01:32:00,51.2,50.7,30.21,NE,51,2.0,3.0,98,0.00,,,0.00,Wunderground v.1.15,2013-09-16 06:32:00,
2013-09-16 01:33:00,51.4,50.9,30.21,ENE,58,2.0,3.0,98,0.00,,,0.00,Wunderground v.1.15,2013-09-16 06:33:00,
2013-09-16 01:39:00,51.5,50.7,30.21,NE,50,2.0,3.0,97,0.00,,,0.00,Wunderground v.1.15,2013-09-16 06:39:00,
2013-09-16 01:46:00,51.4,50.6,30.21,NE,40,2.0,5.0,97,0.00,,,0.00,Wunderground v.1.15,2013-09-16 06:46:00,
2013-09-16 01:48:00,51.3,50.5,30.21,NE,39,2.0,5.0,97,0.00,,,0.00,Wunderground v.1.15,2013-09-16 06:48:00,
2013-09-16 01:50:00,51.4,50.6,30.21,NE,55,2.0,3.0,97,0.00,,,0.00,Wunderground v.1.15,2013-09-16 06:50:00,
2013-09-16 01:52:00,51.3,50.5,30.21,NE,51,2.0,5.0,97,0.00,,,0.00,Wunderground v.1.15,2013-09-16 06:52:00,
2013-09-16 01:55:00,51.4,50.6,30.21,ENE,60,2.0,5.0,97,0.00,,,0.00,Wunderground v.1.15,2013-09-16 06:55:00,
2013-09-16 01:57:00,51.4,50.6,30.21,East,79,3.0,5.0,97,0.00,,,0.00,Wunderground v.1.15,2013-09-16 06:57:00,
2013-09-16 01:59:00,51.4,50.6,30.21,NE,49,3.0,3.0,97,0.00,,,0.00,Wunderground v.1.15,2013-09-16 06:59:00,
2013-09-16 02:04:00,51.3,50.5,30.21,NE,44,2.0,3.0,97,0.00,,,0.00,Wunderground v.1.15,2013-09-16 07:04:00,
2013-09-16 02:06:00,51.3,50.5,30.21,NE,44,2.0,6.0,97,0.00,,,0.00,Wunderground v.1.15,2013-09-16 07:06:00,
2013-09-16 02:08:00,51.4,50.6,30.21,East,88,3.0,6.0,97,0.00,,,0.00,Wunderground v.1.15,2013-09-16 07:08:00,
2013-09-16 02:10:00,51.4,50.6,30.21,NE,53,2.0,4.0,97,0.00,,,0.00,Wunderground v.1.15,2013-09-16 07:10:00,
2013-09-16 02:16:00,51.3,50.5,30.21,ENE,68,3.0,5.0,97,0.00,,,0.00,Wunderground v.1.15,2013-09-16 07:16:00,
2013-09-16 02:19:00,51.3,50.2,30.21,NE,38,3.0,3.0,96,0.00,,,0.00,Wunderground v.1.15,2013-09-16 07:19:00,
2013-09-16 02:21:00,51.2,50.1,30.21,NE,34,3.0,3.0,96,0.00,,,0.00,Wunderground v.1.15,2013-09-16 07:21:00,
2013-09-16 02:23:00,51.2,50.1,30.21,ENE,58,3.0,3.0,96,0.00,,,0.00,Wunderground v.1.15,2013-09-16 07:23:00,
2013-09-16 02:28:00,51.1,50.0,30.22,ENE,64,2.0,3.0,96,0.00,,,0.00,Wunderground v.1.15,2013-09-16 07:28:00,
2013-09-16 02:32:00,51.1,50.0,30.21,ENE,63,2.0,3.0,96,0.00,,,0.00,Wunderground v.1.15,2013-09-16 07:32:00,
2013-09-16 02:34:00,51.0,49.9,30.22,NE,51,2.0,3.0,96,0.00,,,0.00,Wunderground v.1.15,2013-09-16 07:34:00,
2013-09-16 02:37:00,51.0,49.9,30.22,ENE,59,2.0,4.0,96,0.00,,,0.00,Wunderground v.1.15,2013-09-16 07:37:00,
2013-09-16 02:39:00,50.9,49.8,30.22,NE,38,2.0,2.0,96,0.00,,,0.00,Wunderground v.1.15,2013-09-16 07:39:00,
2013-09-16 02:41:00,50.8,49.7,30.22,NE,55,2.0,3.0,96,0.00,,,0.00,Wunderground v.1.15,2013-09-16 07:41:00,
2013-09-16 02:43:00,50.7,49.6,30.22,NE,54,2.0,4.0,96,0.00,,,0.00,Wunderground v.1.15,2013-09-16 07:43:00,
2013-09-16 02:45:00,50.5,49.4,30.22,NE,44,2.0,4.0,96,0.00,,,0.00,Wunderground v.1.15,2013-09-16 07:45:00,
2013-09-16 02:50:00,50.1,48.7,30.22,NE,46,2.0,4.0,95,0.00,,,0.00,Wunderground v.1.15,2013-09-16 07:50:00,
2013-09-16 02:52:00,50.0,48.9,30.22,NE,53,2.0,4.0,96,0.00,,,0.00,Wunderground v.1.15,2013-09-16 07:52:00,
2013-09-16 02:56:00,49.9,48.8,30.22,NE,55,2.0,4.0,96,0.00,,,0.00,Wunderground v.1.15,2013-09-16 07:56:00,
2013-09-16 02:58:00,49.9,48.8,30.22,NE,51,2.0,4.0,96,0.00,,,0.00,Wunderground v.1.15,2013-09-16 07:58:00,
2013-09-16 03:01:00,49.7,48.6,30.23,NE,49,2.0,3.0,96,0.00,,,0.00,Wunderground v.1.15,2013-09-16 08:01:00,
2013-09-16 03:03:00,49.7,48.6,30.23,ENE,58,2.0,3.0,96,0.00,,,0.00,Wunderground v.1.15,2013-09-16 08:03:00,
2013-09-16 03:05:00,49.6,48.5,30.23,NE,36,3.0,3.0,96,0.00,,,0.00,Wunderground v.1.15,2013-09-16 08:05:00,
2013-09-16 03:08:00,49.6,48.5,30.23,NE,39,3.0,3.0,96,0.00,,,0.00,Wunderground v.1.15,2013-09-16 08:08:00,
2013-09-16 03:10:00,49.5,48.4,30.22,ENE,65,3.0,3.0,96,0.00,,,0.00,Wunderground v.1.15,2013-09-16 08:10:00,
2013-09-16 03:12:00,49.5,48.4,30.22,NE,43,3.0,4.0,96,0.00,,,0.00,Wunderground v.1.15,2013-09-16 08:12:00,
2013-09-16 03:14:00,49.4,48.3,30.23,NE,43,3.0,4.0,96,0.00,,,0.00,Wunderground v.1.15,2013-09-16 08:14:00,
2013-09-16 03:18:00,49.3,48.2,30.23,NE,46,3.0,4.0,96,0.00,,,0.00,Wunderground v.1.15,2013-09-16 08:18:00,
2013-09-16 03:20:00,49.2,48.1,30.22,NE,53,3.0,3.0,96,0.00,,,0.00,Wunderground v.1.15,2013-09-16 08:20:00,
2013-09-16 03:23:00,49.1,48.0,30.22,NE,44,3.0,3.0,96,0.00,,,0.00,Wunderground v.1.15,2013-09-16 08:23:00,
2013-09-16 03:25:00,49.0,47.9,30.22,NE,46,3.0,3.0,96,0.00,,,0.00,Wunderground v.1.15,2013-09-16 08:25:00,
2013-09-16 03:27:00,48.9,47.8,30.22,NE,52,3.0,3.0,96,0.00,,,0.00,Wunderground v.1.15,2013-09-16 08:27:00,
2013-09-16 03:32:00,48.9,48.1,30.23,NE,46,3.0,3.0,97,0.00,,,0.00,Wunderground v.1.15,2013-09-16 08:32:00,
2013-09-16 03:34:00,48.9,48.1,30.23,NNE,28,3.0,4.0,97,0.00,,,0.00,Wunderground v.1.15,2013-09-16 08:34:00,
2013-09-16 03:36:00,48.9,48.1,30.23,ENE,70,3.0,4.0,97,0.00,,,0.00,Wunderground v.1.15,2013-09-16 08:36:00,
2013-09-16 03:40:00,48.7,47.9,30.23,NE,45,3.0,3.0,97,0.00,,,0.00,Wunderground v.1.15,2013-09-16 08:40:00,
2013-09-16 03:41:00,48.7,47.9,30.23,NNE,31,3.0,3.0,97,0.00,,,0.00,Wunderground v.1.15,2013-09-16 08:41:00,
2013-09-16 03:45:00,48.7,47.9,30.23,NE,53,3.0,4.0,97,0.00,,,0.00,Wunderground v.1.15,2013-09-16 08:45:00,
2013-09-16 03:47:00,48.7,47.9,30.23,NNE,26,3.0,4.0,97,0.00,,,0.00,Wunderground v.1.15,2013-09-16 08:47:00,
2013-09-16 03:49:00,48.6,47.8,30.23,NE,44,3.0,5.0,97,0.00,,,0.00,Wunderground v.1.15,2013-09-16 08:49:00,
2013-09-16 03:54:00,48.7,47.9,30.23,NE,46,3.0,5.0,97,0.00,,,0.00,Wunderground v.1.15,2013-09-16 08:54:00,
2013-09-16 03:56:00,48.6,47.8,30.23,NE,48,3.0,5.0,97,0.00,,,0.00,Wunderground v.1.15,2013-09-16 08:56:00,
2013-09-16 03:58:00,48.6,47.8,30.23,NNE,27,3.0,5.0,97,0.00,,,0.00,Wunderground v.1.15,2013-09-16 08:58:00,
2013-09-16 04:00:00,48.5,47.7,30.23,NE,51,3.0,3.0,97,0.00,,,0.00,Wunderground v.1.15,2013-09-16 09:00:00,
2013-09-16 04:02:00,48.5,47.7,30.23,NE,55,3.0,3.0,97,0.00,,,0.00,Wunderground v.1.15,2013-09-16 09:02:00,
2013-09-16 04:04:00,48.5,47.7,30.23,NE,48,2.0,3.0,97,0.00,,,0.00,Wunderground v.1.15,2013-09-16 09:04:00,
2013-09-16 04:06:00,48.4,47.6,30.23,NNW,340,2.0,3.0,97,0.00,,,0.00,Wunderground v.1.15,2013-09-16 09:06:00,
2013-09-16 04:09:00,48.4,47.6,30.23,NE,44,2.0,2.0,97,0.00,,,0.00,Wunderground v.1.15,2013-09-16 09:09:00,
2013-09-16 04:14:00,48.5,47.7,30.23,NE,44,2.0,5.0,97,0.00,,,0.00,Wunderground v.1.15,2013-09-16 09:14:00,
2013-09-16 04:16:00,48.5,47.7,30.23,NE,55,2.0,5.0,97,0.00,,,0.01,Wunderground v.1.15,2013-09-16 09:16:00,
2013-09-16 04:18:00,48.5,47.7,30.23,NE,41,2.0,5.0,97,0.00,,,0.01,Wunderground v.1.15,2013-09-16 09:18:00,
2013-09-16 04:24:00,48.4,47.6,30.23,NE,43,2.0,4.0,97,0.00,,,0.01,Wunderground v.1.15,2013-09-16 09:24:00,
2013-09-16 04:26:00,48.3,47.5,30.23,NE,34,3.0,4.0,97,0.00,,,0.01,Wunderground v.1.15,2013-09-16 09:26:00,
2013-09-16 04:29:00,48.2,47.4,30.23,NE,36,3.0,3.0,97,0.00,,,0.01,Wunderground v.1.15,2013-09-16 09:29:00,
2013-09-16 04:36:00,48.1,47.3,30.24,NE,37,3.0,4.0,97,0.00,,,0.01,Wunderground v.1.15,2013-09-16 09:36:00,
2013-09-16 04:40:00,48.0,47.2,30.24,NE,53,3.0,3.0,97,0.00,,,0.01,Wunderground v.1.15,2013-09-16 09:40:00,
2013-09-16 04:44:00,48.0,47.2,30.24,NE,48,3.0,4.0,97,0.00,,,0.01,Wunderground v.1.15,2013-09-16 09:44:00,
2013-09-16 04:46:00,48.1,47.3,30.24,NE,43,3.0,6.0,97,0.00,,,0.01,Wunderground v.1.15,2013-09-16 09:46:00,
2013-09-16 04:49:00,48.2,47.4,30.23,NE,49,3.0,3.0,97,0.00,,,0.01,Wunderground v.1.15,2013-09-16 09:49:00,
2013-09-16 04:51:00,48.2,47.4,30.23,East,94,3.0,4.0,97,0.00,,,0.01,Wunderground v.1.15,2013-09-16 09:51:00,
2013-09-16 04:53:00,48.3,47.8,30.24,ENE,61,3.0,4.0,98,0.00,,,0.01,Wunderground v.1.15,2013-09-16 09:53:00,
2013-09-16 05:00:00,48.4,47.6,30.23,NNE,13,3.0,3.0,97,0.00,,,0.01,Wunderground v.1.15,2013-09-16 10:00:00,
2013-09-16 05:06:00,48.3,47.5,30.24,NNE,25,2.0,3.0,97,0.00,,,0.01,Wunderground v.1.15,2013-09-16 10:06:00,
2013-09-16 05:08:00,48.3,47.5,30.24,NE,49,2.0,3.0,97,0.00,,,0.01,Wunderground v.1.15,2013-09-16 10:08:00,
2013-09-16 05:10:00,48.3,47.5,30.24,ENE,63,2.0,3.0,97,0.00,,,0.01,Wunderground v.1.15,2013-09-16 10:10:00,
2013-09-16 05:14:00,48.4,47.6,30.24,ENE,67,2.0,5.0,97,0.00,,,0.01,Wunderground v.1.15,2013-09-16 10:14:00,
2013-09-16 05:18:00,48.6,48.1,30.24,ENE,70,3.0,5.0,98,0.00,,,0.01,Wunderground v.1.15,2013-09-16 10:18:00,
2013-09-16 05:19:00,48.6,48.1,30.24,NNE,27,3.0,4.0,98,0.00,,,0.01,Wunderground v.1.15,2013-09-16 10:19:00,
2013-09-16 05:23:00,48.5,47.7,30.24,ENE,60,3.0,4.0,97,0.00,,,0.01,Wunderground v.1.15,2013-09-16 10:23:00,
2013-09-16 05:26:00,48.5,47.7,30.24,ENE,72,3.0,4.0,97,0.00,,,0.01,Wunderground v.1.15,2013-09-16 10:26:00,
2013-09-16 05:28:00,48.5,47.7,30.24,East,79,3.0,4.0,97,0.00,,,0.01,Wunderground v.1.15,2013-09-16 10:28:00,
2013-09-16 05:32:00,48.5,47.7,30.24,ENE,60,3.0,3.0,97,0.00,,,0.01,Wunderground v.1.15,2013-09-16 10:32:00,
2013-09-16 05:36:00,48.4,47.6,30.24,ENE,62,3.0,3.0,97,0.00,,,0.01,Wunderground v.1.15,2013-09-16 10:36:00,
2013-09-16 05:38:00,48.4,47.6,30.24,East,100,2.0,3.0,97,0.00,,,0.01,Wunderground v.1.15,2013-09-16 10:38:00,
2013-09-16 05:40:00,48.3,47.5,30.24,East,83,3.0,3.0,97,0.00,,,0.01,Wunderground v.1.15,2013-09-16 10:40:00,
2013-09-16 05:41:00,48.3,47.5,30.24,ENE,68,3.0,3.0,97,0.00,,,0.01,Wunderground v.1.15,2013-09-16 10:41:00,
2013-09-16 05:46:00,48.3,47.5,30.24,NNW,347,3.0,3.0,97,0.00,,,0.01,Wunderground v.1.15,2013-09-16 10:46:00,
2013-09-16 05:48:00,48.2,47.4,30.24,East,88,3.0,6.0,97,0.00,,,0.01,Wunderground v.1.15,2013-09-16 10:48:00,
2013-09-16 05:50:00,48.1,47.3,30.24,NE,48,4.0,4.0,97,0.00,,,0.01,Wunderground v.1.15,2013-09-16 10:50:00,
2013-09-16 05:52:00,48.1,47.3,30.25,NE,48,4.0,4.0,97,0.00,,,0.01,Wunderground v.1.15,2013-09-16 10:52:00,
2013-09-16 05:56:00,47.9,47.1,30.25,NE,49,4.0,4.0,97,0.00,,,0.01,Wunderground v.1.15,2013-09-16 10:56:00,
2013-09-16 05:58:00,47.7,46.6,30.25,NE,43,4.0,4.0,96,0.00,,,0.01,Wunderground v.1.15,2013-09-16 10:58:00,
2013-09-16 06:02:00,47.4,46.3,30.25,NE,49,3.0,3.0,96,0.00,,,0.01,Wunderground v.1.15,2013-09-16 11:02:00,
2013-09-16 06:03:00,47.3,46.2,30.25,NE,53,3.0,3.0,96,0.00,,,0.01,Wunderground v.1.15,2013-09-16 11:03:00,
2013-09-16 06:08:00,47.1,46.0,30.25,NE,46,3.0,5.0,96,0.00,,,0.01,Wunderground v.1.15,2013-09-16 11:08:00,
2013-09-16 06:10:00,46.9,45.8,30.25,ENE,60,3.0,3.0,96,0.00,,,0.01,Wunderground v.1.15,2013-09-16 11:10:00,
2013-09-16 06:12:00,46.8,45.7,30.25,East,89,3.0,3.0,96,0.00,,,0.01,Wunderground v.1.15,2013-09-16 11:12:00,
2013-09-16 06:16:00,46.8,46.0,30.25,East,93,2.0,3.0,97,0.00,,,0.01,Wunderground v.1.15,2013-09-16 11:16:00,
2013-09-16 06:18:00,46.7,45.9,30.25,NE,44,2.0,3.0,97,0.00,,,0.01,Wunderground v.1.15,2013-09-16 11:18:00,
2013-09-16 06:23:00,46.6,45.8,30.25,ENE,63,1.0,3.0,97,0.00,,,0.01,Wunderground v.1.15,2013-09-16 11:23:00,
2013-09-16 06:25:00,46.6,45.8,30.25,ENE,59,1.0,3.0,97,0.00,,,0.01,Wunderground v.1.15,2013-09-16 11:25:00,
2013-09-16 06:27:00,46.5,45.7,30.25,NE,43,1.0,4.0,97,0.00,,,0.01,Wunderground v.1.15,2013-09-16 11:27:00,
2013-09-16 06:30:00,46.5,45.7,30.25,ENE,64,1.0,4.0,97,0.00,,,0.01,Wunderground v.1.15,2013-09-16 11:30:00,
2013-09-16 06:36:00,46.4,45.6,30.25,NE,53,2.0,4.0,97,0.00,,,0.01,Wunderground v.1.15,2013-09-16 11:36:00,
2013-09-16 06:38:00,46.3,45.5,30.26,NE,43,2.0,4.0,97,0.00,,,0.01,Wunderground v.1.15,2013-09-16 11:38:00,
2013-09-16 06:40:00,46.1,45.3,30.26,NE,43,2.0,2.0,97,0.00,,,0.01,Wunderground v.1.15,2013-09-16 11:40:00,
2013-09-16 06:44:00,46.0,45.2,30.26,ENE,75,1.0,3.0,97,0.00,,,0.01,Wunderground v.1.15,2013-09-16 11:44:00,
2013-09-16 06:45:00,46.0,45.2,30.26,ENE,74,1.0,3.0,97,0.00,,,0.01,Wunderground v.1.15,2013-09-16 11:45:00,
2013-09-16 06:47:00,46.1,45.3,30.26,ENE,60,0.0,3.0,97,0.00,,,0.01,Wunderground v.1.15,2013-09-16 11:47:00,
2013-09-16 06:50:00,46.3,45.8,30.26,East,88,1.0,3.0,98,0.00,,,0.01,Wunderground v.1.15,2013-09-16 11:50:00,
2013-09-16 06:54:00,46.7,46.2,30.26,NE,51,1.0,3.0,98,0.00,,,0.01,Wunderground v.1.15,2013-09-16 11:54:00,
2013-09-16 06:58:00,47.0,46.5,30.26,NE,46,2.0,3.0,98,0.00,,,0.01,Wunderground v.1.15,2013-09-16 11:58:00,
2013-09-16 07:00:00,47.1,46.6,30.26,NE,53,3.0,4.0,98,0.00,,,0.01,Wunderground v.1.15,2013-09-16 12:00:00,
2013-09-16 07:06:00,47.3,46.8,30.26,ENE,77,2.0,4.0,98,0.00,,,0.01,Wunderground v.1.15,2013-09-16 12:06:00,
2013-09-16 07:07:00,47.3,46.8,30.27,ENE,63,2.0,4.0,98,0.00,,,0.01,Wunderground v.1.15,2013-09-16 12:07:00,
2013-09-16 07:09:00,47.3,46.8,30.27,ENE,59,1.0,3.0,98,0.00,,,0.01,Wunderground v.1.15,2013-09-16 12:09:00,
2013-09-16 07:12:00,47.3,46.8,30.27,NE,49,1.0,5.0,98,0.00,,,0.01,Wunderground v.1.15,2013-09-16 12:12:00,
2013-09-16 07:14:00,47.2,46.7,30.26,NE,34,2.0,5.0,98,0.00,,,0.01,Wunderground v.1.15,2013-09-16 12:14:00,
2013-09-16 07:16:00,47.2,46.7,30.26,ENE,65,2.0,5.0,98,0.00,,,0.01,Wunderground v.1.15,2013-09-16 12:16:00,
2013-09-16 07:22:00,47.3,46.8,30.26,NE,47,3.0,3.0,98,0.00,,,0.01,Wunderground v.1.15,2013-09-16 12:22:00,
2013-09-16 07:26:00,47.2,46.7,30.27,ENE,64,2.0,3.0,98,0.00,,,0.01,Wunderground v.1.15,2013-09-16 12:26:00,
2013-09-16 07:27:00,47.3,46.8,30.27,NE,53,2.0,3.0,98,0.00,,,0.01,Wunderground v.1.15,2013-09-16 12:27:00,
2013-09-16 07:29:00,47.2,46.7,30.27,NE,55,2.0,3.0,98,0.00,,,0.01,Wunderground v.1.15,2013-09-16 12:29:00,
2013-09-16 07:34:00,47.2,46.7,30.27,NE,49,2.0,3.0,98,0.00,,,0.01,Wunderground v.1.15,2013-09-16 12:34:00,
2013-09-16 07:36:00,47.2,46.7,30.27,NE,48,2.0,3.0,98,0.00,,,0.01,Wunderground v.1.15,2013-09-16 12:36:00,
2013-09-16 07:40:00,47.1,46.6,30.27,NE,47,2.0,2.0,98,0.00,,,0.01,Wunderground v.1.15,2013-09-16 12:40:00,
2013-09-16 07:46:00,47.2,46.7,30.27,NE,44,2.0,4.0,98,0.00,,,0.01,Wunderground v.1.15,2013-09-16 12:46:00,
2013-09-16 07:48:00,47.1,46.6,30.27,NE,51,2.0,4.0,98,0.00,,,0.01,Wunderground v.1.15,2013-09-16 12:48:00,
2013-09-16 07:49:00,47.1,46.6,30.27,NE,43,3.0,3.0,98,0.00,,,0.01,Wunderground v.1.15,2013-09-16 12:49:00,
2013-09-16 07:51:00,47.1,46.6,30.27,NE,46,3.0,3.0,98,0.00,,,0.01,Wunderground v.1.15,2013-09-16 12:51:00,
2013-09-16 07:54:00,47.0,46.5,30.27,NE,42,3.0,5.0,98,0.00,,,0.01,Wunderground v.1.15,2013-09-16 12:54:00,
2013-09-16 07:56:00,47.0,46.5,30.27,ENE,64,3.0,5.0,98,0.00,,,0.01,Wunderground v.1.15,2013-09-16 12:56:00,
2013-09-16 08:02:00,47.2,46.7,30.28,NE,47,3.0,3.0,98,0.00,,,0.01,Wunderground v.1.15,2013-09-16 13:02:00,
2013-09-16 08:04:00,47.2,46.7,30.28,ENE,63,3.0,3.0,98,0.00,,,0.01,Wunderground v.1.15,2013-09-16 13:04:00,
2013-09-16 08:06:00,47.2,46.7,30.28,NE,50,3.0,3.0,98,0.00,,,0.01,Wunderground v.1.15,2013-09-16 13:06:00,
2013-09-16 08:08:00,47.2,46.7,30.27,ENE,72,2.0,3.0,98,0.00,,,0.01,Wunderground v.1.15,2013-09-16 13:08:00,
2013-09-16 08:10:00,47.3,46.8,30.27,NE,48,2.0,6.0,98,0.00,,,0.01,Wunderground v.1.15,2013-09-16 13:10:00,
2013-09-16 08:11:00,47.3,46.8,30.27,ENE,76,2.0,6.0,98,0.00,,,0.01,Wunderground v.1.15,2013-09-16 13:11:00,
2013-09-16 08:16:00,47.5,47.0,30.27,ENE,78,2.0,6.0,98,0.00,,,0.01,Wunderground v.1.15,2013-09-16 13:16:00,
2013-09-16 08:18:00,47.6,47.1,30.27,ENE,63,2.0,6.0,98,0.00,,,0.01,Wunderground v.1.15,2013-09-16 13:18:00,
2013-09-16 08:20:00,47.7,47.2,30.27,ESE,117,3.0,3.0,98,0.00,,,0.01,Wunderground v.1.15,2013-09-16 13:20:00,
2013-09-16 08:26:00,47.9,47.4,30.27,NE,46,3.0,4.0,98,0.00,,,0.01,Wunderground v.1.15,2013-09-16 13:26:00,
2013-09-16 08:28:00,48.1,47.6,30.27,ENE,64,3.0,4.0,98,0.00,,,0.01,Wunderground v.1.15,2013-09-16 13:28:00,
2013-09-16 08:30:00,48.3,47.8,30.27,NE,44,2.0,3.0,98,0.00,,,0.01,Wunderground v.1.15,2013-09-16 13:30:00,
2013-09-16 08:33:00,48.4,47.9,30.27,East,89,2.0,3.0,98,0.00,,,0.01,Wunderground v.1.15,2013-09-16 13:33:00,
2013-09-16 08:35:00,48.5,48.0,30.27,NE,36,2.0,4.0,98,0.00,,,0.01,Wunderground v.1.15,2013-09-16 13:35:00,
2013-09-16 08:38:00,48.5,48.0,30.27,ENE,61,2.0,4.0,98,0.00,,,0.01,Wunderground v.1.15,2013-09-16 13:38:00,
2013-09-16 08:44:00,48.7,48.2,30.28,ESE,116,3.0,3.0,98,0.00,,,0.01,Wunderground v.1.15,2013-09-16 13:44:00,
2013-09-16 08:46:00,48.9,48.4,30.28,NE,43,2.0,4.0,98,0.00,,,0.01,Wunderground v.1.15,2013-09-16 13:46:00,
2013-09-16 08:48:00,49.0,48.5,30.28,NE,52,2.0,4.0,98,0.00,,,0.01,Wunderground v.1.15,2013-09-16 13:48:00,
2013-09-16 08:52:00,49.6,49.1,30.28,ENE,63,2.0,3.0,98,0.00,,,0.01,Wunderground v.1.15,2013-09-16 13:52:00,
2013-09-16 08:55:00,50.0,49.5,30.28,ENE,70,2.0,3.0,98,0.00,,,0.01,Wunderground v.1.15,2013-09-16 13:55:00,
2013-09-16 08:58:00,50.3,49.8,30.28,ENE,68,2.0,3.0,98,0.00,,,0.01,Wunderground v.1.15,2013-09-16 13:58:00,
2013-09-16 09:00:00,50.5,50.0,30.28,NE,41,2.0,3.0,98,0.00,,,0.01,Wunderground v.1.15,2013-09-16 14:00:00,
2013-09-16 09:02:00,50.7,50.2,30.29,NE,51,2.0,4.0,98,0.00,,,0.01,Wunderground v.1.15,2013-09-16 14:02:00,
2013-09-16 09:04:00,51.0,50.5,30.29,SSE,160,2.0,4.0,98,0.00,,,0.01,Wunderground v.1.15,2013-09-16 14:04:00,
2013-09-16 09:08:00,51.4,50.6,30.29,ENE,73,3.0,4.0,97,0.00,,,0.01,Wunderground v.1.15,2013-09-16 14:08:00,
2013-09-16 09:10:00,51.6,50.8,30.29,NE,41,2.0,2.0,97,0.00,,,0.01,Wunderground v.1.15,2013-09-16 14:10:00,
2013-09-16 09:12:00,52.0,51.2,30.29,SE,133,2.0,3.0,97,0.00,,,0.01,Wunderground v.1.15,2013-09-16 14:12:00,
2013-09-16 09:14:00,52.2,51.4,30.29,NE,48,2.0,3.0,97,0.00,,,0.01,Wunderground v.1.15,2013-09-16 14:14:00,
2013-09-16 09:20:00,52.7,51.0,30.29,ENE,58,1.0,3.0,94,0.00,,,0.01,Wunderground v.1.15,2013-09-16 14:20:00,
2013-09-16 09:22:00,52.8,50.8,30.29,NE,56,1.0,3.0,93,0.00,,,0.01,Wunderground v.1.15,2013-09-16 14:22:00,
2013-09-16 09:24:00,52.8,50.8,30.29,ENE,74,1.0,3.0,93,0.00,,,0.01,Wunderground v.1.15,2013-09-16 14:24:00,
2013-09-16 09:26:00,52.9,50.9,30.29,NE,41,1.0,3.0,93,0.00,,,0.01,Wunderground v.1.15,2013-09-16 14:26:00,
2013-09-16 09:28:00,53.0,51.0,30.29,SW,221,1.0,3.0,93,0.00,,,0.01,Wunderground v.1.15,2013-09-16 14:28:00,
2013-09-16 09:32:00,53.3,51.3,30.29,NE,46,1.0,3.0,93,0.00,,,0.01,Wunderground v.1.15,2013-09-16 14:32:00,
2013-09-16 09:34:00,53.4,51.1,30.29,WSW,252,1.0,3.0,92,0.00,,,0.01,Wunderground v.1.15,2013-09-16 14:34:00,
2013-09-16 09:35:00,53.6,51.6,30.29,South,190,1.0,3.0,93,0.00,,,0.01,Wunderground v.1.15,2013-09-16 14:35:00,
2013-09-16 09:37:00,53.8,51.8,30.29,South,190,1.0,3.0,93,0.00,,,0.01,Wunderground v.1.15,2013-09-16 14:37:00,
2013-09-16 09:39:00,54.3,52.6,30.29,ENE,58,0.0,3.0,94,0.00,,,0.01,Wunderground v.1.15,2013-09-16 14:39:00,
2013-09-16 09:42:00,54.8,52.8,30.29,South,172,0.0,3.0,93,0.00,,,0.01,Wunderground v.1.15,2013-09-16 14:42:00,
2013-09-16 09:46:00,55.3,52.4,30.29,ENE,58,1.0,4.0,90,0.00,,,0.01,Wunderground v.1.15,2013-09-16 14:46:00,
2013-09-16 09:48:00,55.6,53.0,30.29,East,82,1.0,4.0,91,0.00,,,0.01,Wunderground v.1.15,2013-09-16 14:48:00,
2013-09-16 09:50:00,55.8,52.9,30.29,NE,49,1.0,3.0,90,0.00,,,0.01,Wunderground v.1.15,2013-09-16 14:50:00,
2013-09-16 09:52:00,56.1,53.2,30.29,SSE,149,1.0,3.0,90,0.00,,,0.01,Wunderground v.1.15,2013-09-16 14:52:00,
2013-09-16 09:56:00,56.9,53.7,30.29,SE,145,1.0,3.0,89,0.00,,,0.01,Wunderground v.1.15,2013-09-16 14:56:00,
2013-09-16 09:57:00,57.1,53.6,30.30,ESE,122,1.0,3.0,88,0.00,,,0.01,Wunderground v.1.15,2013-09-16 14:57:00,
2013-09-16 09:59:00,57.4,53.6,30.29,NE,56,1.0,3.0,87,0.00,,,0.01,Wunderground v.1.15,2013-09-16 14:59:00,
2013-09-16 10:02:00,57.5,53.7,30.29,ENE,64,1.0,3.0,87,0.00,,,0.01,Wunderground v.1.15,2013-09-16 15:02:00,
2013-09-16 10:04:00,57.5,53.3,30.29,ENE,77,1.0,3.0,86,0.00,,,0.01,Wunderground v.1.15,2013-09-16 15:04:00,
2013-09-16 10:06:00,57.6,53.4,30.29,SE,141,1.0,3.0,86,0.00,,,0.01,Wunderground v.1.15,2013-09-16 15:06:00,
2013-09-16 10:08:00,57.9,54.1,30.29,SE,129,1.0,3.0,87,0.00,,,0.01,Wunderground v.1.15,2013-09-16 15:08:00,
2013-09-16 10:10:00,58.2,54.0,30.29,NE,43,1.0,3.0,86,0.00,,,0.01,Wunderground v.1.15,2013-09-16 15:10:00,
2013-09-16 10:12:00,58.1,53.6,30.29,NE,40,1.0,3.0,85,0.00,,,0.01,Wunderground v.1.15,2013-09-16 15:12:00,
2013-09-16 10:14:00,57.8,53.3,30.29,SW,219,1.0,3.0,85,0.00,,,0.01,Wunderground v.1.15,2013-09-16 15:14:00,
2013-09-16 10:16:00,57.7,53.5,30.29,East,98,2.0,3.0,86,0.00,,,0.01,Wunderground v.1.15,2013-09-16 15:16:00,
2013-09-16 10:18:00,57.6,53.4,30.29,East,82,2.0,3.0,86,0.00,,,0.01,Wunderground v.1.15,2013-09-16 15:18:00,
2013-09-16 10:19:00,57.6,53.4,30.29,SW,215,1.0,3.0,86,0.00,,,0.01,Wunderground v.1.15,2013-09-16 15:19:00,
2013-09-16 10:21:00,57.7,53.9,30.30,SE,125,1.0,3.0,87,0.00,,,0.01,Wunderground v.1.15,2013-09-16 15:21:00,
2013-09-16 10:24:00,58.0,54.2,30.29,SSE,150,1.0,3.0,87,0.00,,,0.01,Wunderground v.1.15,2013-09-16 15:24:00,
2013-09-16 10:28:00,58.4,53.9,30.29,ENE,67,0.0,3.0,85,0.00,,,0.01,Wunderground v.1.15,2013-09-16 15:28:00,
2013-09-16 10:30:00,58.4,53.9,30.29,ENE,70,1.0,3.0,85,0.00,,,0.01,Wunderground v.1.15,2013-09-16 15:30:00,
2013-09-16 10:32:00,58.1,53.3,30.29,SSE,168,1.0,3.0,84,0.00,,,0.01,Wunderground v.1.15,2013-09-16 15:32:00,
2013-09-16 10:34:00,57.7,52.9,30.29,NE,38,1.0,3.0,84,0.00,,,0.01,Wunderground v.1.15,2013-09-16 15:34:00,
2013-09-16 10:36:00,57.4,53.2,30.29,ENE,60,2.0,3.0,86,0.00,,,0.01,Wunderground v.1.15,2013-09-16 15:36:00,
2013-09-16 10:38:00,57.3,53.5,30.29,SE,135,2.0,3.0,87,0.00,,,0.01,Wunderground v.1.15,2013-09-16 15:38:00,
2013-09-16 10:39:00,57.4,53.9,30.29,NE,53,2.0,5.0,88,0.00,,,0.01,Wunderground v.1.15,2013-09-16 15:39:00,
2013-09-16 10:43:00,57.9,53.7,30.29,ENE,70,2.0,5.0,86,0.00,,,0.01,Wunderground v.1.15,2013-09-16 15:43:00,
2013-09-16 10:46:00,58.1,54.6,30.29,SW,224,2.0,5.0,88,0.00,,,0.01,Wunderground v.1.15,2013-09-16 15:46:00,
2013-09-16 10:48:00,58.4,54.9,30.29,NE,44,2.0,5.0,88,0.00,,,0.01,Wunderground v.1.15,2013-09-16 15:48:00,
2013-09-16 10:52:00,58.8,54.6,30.29,NE,44,2.0,3.0,86,0.00,,,0.01,Wunderground v.1.15,2013-09-16 15:52:00,
2013-09-16 10:54:00,59.1,54.9,30.29,NNE,22,1.0,3.0,86,0.00,,,0.01,Wunderground v.1.15,2013-09-16 15:54:00,
2013-09-16 10:58:00,59.6,55.4,30.29,SSW,203,1.0,3.0,86,0.00,,,0.01,Wunderground v.1.15,2013-09-16 15:58:00,
2013-09-16 11:00:00,59.9,55.4,30.29,ENE,62,1.0,1.0,85,0.00,,,0.01,Wunderground v.1.15,2013-09-16 16:00:00,
2013-09-16 11:01:00,60.2,55.7,30.29,South,171,1.0,3.0,85,0.00,,,0.01,Wunderground v.1.15,2013-09-16 16:01:00,
2013-09-16 11:05:00,60.8,55.9,30.29,ENE,63,1.0,3.0,84,0.00,,,0.01,Wunderground v.1.15,2013-09-16 16:05:00,
2013-09-16 11:12:00,61.7,55.8,30.29,SE,134,1.0,3.0,81,0.00,,,0.01,Wunderground v.1.15,2013-09-16 16:12:00,
2013-09-16 11:14:00,61.8,55.9,30.29,ESE,116,1.0,3.0,81,0.00,,,0.01,Wunderground v.1.15,2013-09-16 16:14:00,
2013-09-16 11:18:00,62.4,56.1,30.29,NE,56,1.0,3.0,80,0.00,,,0.01,Wunderground v.1.15,2013-09-16 16:18:00,
2013-09-16 11:20:00,62.3,55.4,30.28,ENE,61,1.0,3.0,78,0.00,,,0.01,Wunderground v.1.15,2013-09-16 16:20:00,
2013-09-16 11:23:00,62.1,55.9,30.28,ENE,61,1.0,3.0,80,0.00,,,0.01,Wunderground v.1.15,2013-09-16 16:23:00,
2013-09-16 11:25:00,62.1,56.2,30.28,SE,141,1.0,3.0,81,0.00,,,0.01,Wunderground v.1.15,2013-09-16 16:25:00,
2013-09-16 11:29:00,62.6,56.3,30.28,SSE,150,1.0,1.0,80,0.00,,,0.01,Wunderground v.1.15,2013-09-16 16:29:00,
2013-09-16 11:32:00,63.0,56.7,30.28,SE,134,1.0,3.0,80,0.00,,,0.01,Wunderground v.1.15,2013-09-16 16:32:00,
2013-09-16 11:34:00,63.3,56.7,30.28,ENE,70,1.0,3.0,79,0.00,,,0.01,Wunderground v.1.15,2013-09-16 16:34:00,
2013-09-16 11:36:00,63.4,56.8,30.28,SE,145,1.0,3.0,79,0.00,,,0.01,Wunderground v.1.15,2013-09-16 16:36:00,
2013-09-16 11:38:00,63.7,57.1,30.28,SE,138,1.0,3.0,79,0.00,,,0.01,Wunderground v.1.15,2013-09-16 16:38:00,
2013-09-16 11:43:00,64.6,57.2,30.28,SE,139,1.0,3.0,77,0.00,,,0.01,Wunderground v.1.15,2013-09-16 16:43:00,
2013-09-16 11:45:00,64.9,57.9,30.28,SE,140,1.0,3.0,78,0.00,,,0.01,Wunderground v.1.15,2013-09-16 16:45:00,
2013-09-16 11:49:00,65.6,57.5,30.28,ESE,109,1.0,3.0,75,0.00,,,0.01,Wunderground v.1.15,2013-09-16 16:49:00,
2013-09-16 11:51:00,65.9,57.4,30.28,SE,134,1.0,3.0,74,0.00,,,0.01,Wunderground v.1.15,2013-09-16 16:51:00,
2013-09-16 11:54:00,66.2,58.0,30.28,SSE,150,1.0,3.0,75,0.00,,,0.01,Wunderground v.1.15,2013-09-16 16:54:00,
2013-09-16 11:56:00,66.5,58.0,30.28,ENE,72,1.0,3.0,74,0.00,,,0.01,Wunderground v.1.15,2013-09-16 16:56:00,
2013-09-16 12:00:00,66.7,57.4,30.28,NE,51,1.0,3.0,72,0.00,,,0.01,Wunderground v.1.15,2013-09-16 17:00:00,
2013-09-16 12:02:00,66.4,56.7,30.28,SSE,148,1.0,3.0,71,0.00,,,0.01,Wunderground v.1.15,2013-09-16 17:02:00,
2013-09-16 12:04:00,66.3,57.0,30.28,SSE,163,1.0,3.0,72,0.00,,,0.01,Wunderground v.1.15,2013-09-16 17:04:00,
2013-09-16 12:06:00,66.4,57.1,30.28,South,169,1.0,3.0,72,0.00,,,0.01,Wunderground v.1.15,2013-09-16 17:06:00,
2013-09-16 12:08:00,66.7,57.8,30.28,SE,136,1.0,3.0,73,0.00,,,0.01,Wunderground v.1.15,2013-09-16 17:08:00,
2013-09-16 12:09:00,67.0,57.7,30.28,SSE,160,1.0,1.0,72,0.00,,,0.01,Wunderground v.1.15,2013-09-16 17:09:00,
2013-09-16 12:11:00,67.1,57.0,30.28,SE,126,1.0,1.0,70,0.00,,,0.01,Wunderground v.1.15,2013-09-16 17:11:00,
2013-09-16 12:16:00,67.3,57.2,30.27,SSE,150,1.0,2.0,70,0.00,,,0.01,Wunderground v.1.15,2013-09-16 17:16:00,
2013-09-16 12:18:00,67.6,57.1,30.27,SSE,153,1.0,2.0,69,0.00,,,0.01,Wunderground v.1.15,2013-09-16 17:18:00,
2013-09-16 12:20:00,67.8,57.3,30.27,SSE,153,1.0,1.0,69,0.00,,,0.01,Wunderground v.1.15,2013-09-16 17:20:00,
2013-09-16 12:22:00,67.9,56.1,30.27,NE,50,1.0,2.0,66,0.00,,,0.01,Wunderground v.1.15,2013-09-16 17:22:00,
2013-09-16 12:24:00,67.6,56.2,30.27,NE,34,1.0,2.0,67,0.00,,,0.01,Wunderground v.1.15,2013-09-16 17:24:00,
2013-09-16 12:26:00,66.9,55.6,30.27,NE,55,1.0,2.0,67,0.00,,,0.01,Wunderground v.1.15,2013-09-16 17:26:00,
2013-09-16 12:28:00,66.2,55.3,30.27,ENE,62,1.0,2.0,68,0.00,,,0.01,Wunderground v.1.15,2013-09-16 17:28:00,
2013-09-16 12:30:00,65.6,55.5,30.27,NE,51,1.0,3.0,70,0.00,,,0.01,Wunderground v.1.15,2013-09-16 17:30:00,
2013-09-16 12:31:00,65.2,55.2,30.27,NE,41,1.0,3.0,70,0.00,,,0.01,Wunderground v.1.15,2013-09-16 17:31:00,
2013-09-16 12:33:00,65.1,55.5,30.27,NE,56,1.0,3.0,71,0.00,,,0.01,Wunderground v.1.15,2013-09-16 17:33:00,
2013-09-16 12:38:00,65.8,56.5,30.27,ENE,60,1.0,4.0,72,0.00,,,0.01,Wunderground v.1.15,2013-09-16 17:38:00,
2013-09-16 12:40:00,65.7,55.6,30.27,ENE,75,1.0,1.0,70,0.00,,,0.01,Wunderground v.1.15,2013-09-16 17:40:00,
2013-09-16 12:44:00,65.3,55.7,30.27,South,183,1.0,3.0,71,0.00,,,0.01,Wunderground v.1.15,2013-09-16 17:44:00,
2013-09-16 12:46:00,65.6,56.3,30.27,SE,139,1.0,3.0,72,0.00,,,0.01,Wunderground v.1.15,2013-09-16 17:46:00,
2013-09-16 12:48:00,66.0,55.9,30.27,SE,139,1.0,3.0,70,0.00,,,0.01,Wunderground v.1.15,2013-09-16 17:48:00,
2013-09-16 12:50:00,66.7,56.2,30.27,ESE,115,1.0,1.0,69,0.00,,,0.01,Wunderground v.1.15,2013-09-16 17:50:00,
2013-09-16 12:52:00,67.4,56.9,30.27,ESE,120,1.0,2.0,69,0.00,,,0.01,Wunderground v.1.15,2013-09-16 17:52:00,
2013-09-16 12:53:00,68.1,56.3,30.27,NNE,33,1.0,2.0,66,0.00,,,0.01,Wunderground v.1.15,2013-09-16 17:53:00,
2013-09-16 12:55:00,68.6,55.5,30.27,ESE,108,1.0,2.0,63,0.00,,,0.01,Wunderground v.1.15,2013-09-16 17:55:00,
2013-09-16 12:58:00,69.1,56.0,30.27,SE,142,1.0,2.0,63,0.00,,,0.01,Wunderground v.1.15,2013-09-16 17:58:00,
2013-09-16 13:00:00,69.4,56.3,30.27,SW,218,1.0,1.0,63,0.00,,,0.01,Wunderground v.1.15,2013-09-16 18:00:00,
2013-09-16 13:02:00,69.2,55.6,30.27,ENE,71,1.0,3.0,62,0.00,,,0.01,Wunderground v.1.15,2013-09-16 18:02:00,
2013-09-16 13:04:00,69.0,55.4,30.26,SSW,198,1.0,3.0,62,0.00,,,0.01,Wunderground v.1.15,2013-09-16 18:04:00,
2013-09-16 13:06:00,68.8,56.1,30.26,East,82,1.0,3.0,64,0.00,,,0.01,Wunderground v.1.15,2013-09-16 18:06:00,
2013-09-16 13:10:00,68.3,55.6,30.26,ESE,108,1.0,3.0,64,0.00,,,0.01,Wunderground v.1.15,2013-09-16 18:10:00,
2013-09-16 13:12:00,68.2,55.6,30.26,ESE,117,1.0,3.0,64,0.00,,,0.01,Wunderground v.1.15,2013-09-16 18:12:00,
2013-09-16 13:13:00,68.1,55.5,30.26,ENE,72,1.0,3.0,64,0.00,,,0.01,Wunderground v.1.15,2013-09-16 18:13:00,
2013-09-16 13:15:00,67.9,55.3,30.26,SE,126,1.0,3.0,64,0.00,,,0.01,Wunderground v.1.15,2013-09-16 18:15:00,
2013-09-16 13:22:00,68.0,54.9,30.26,ENE,75,1.0,4.0,63,0.00,,,0.01,Wunderground v.1.15,2013-09-16 18:22:00,
2013-09-16 13:24:00,68.0,56.2,30.26,SW,215,1.0,4.0,66,0.00,,,0.01,Wunderground v.1.15,2013-09-16 18:24:00,
2013-09-16 13:26:00,68.1,55.0,30.26,ESE,110,1.0,4.0,63,0.00,,,0.01,Wunderground v.1.15,2013-09-16 18:26:00,
2013-09-16 13:30:00,68.2,55.1,30.25,SE,131,1.0,1.0,63,0.00,,,0.01,Wunderground v.1.15,2013-09-16 18:30:00,
2013-09-16 13:32:00,68.3,55.2,30.25,SSW,208,1.0,3.0,63,0.00,,,0.01,Wunderground v.1.15,2013-09-16 18:32:00,
2013-09-16 13:34:00,68.6,56.4,30.25,SE,131,1.0,3.0,65,0.00,,,0.01,Wunderground v.1.15,2013-09-16 18:34:00,
2013-09-16 13:35:00,69.2,56.5,30.25,SE,138,1.0,3.0,64,0.00,,,0.01,Wunderground v.1.15,2013-09-16 18:35:00,
2013-09-16 13:40:00,70.0,55.0,30.25,South,170,1.0,3.0,59,0.00,,,0.01,Wunderground v.1.15,2013-09-16 18:40:00,
2013-09-16 13:42:00,70.3,57.1,30.25,East,81,1.0,3.0,63,0.00,,,0.01,Wunderground v.1.15,2013-09-16 18:42:00,
2013-09-16 13:46:00,70.3,56.2,30.25,SSE,148,1.0,3.0,61,0.00,,,0.01,Wunderground v.1.15,2013-09-16 18:46:00,
2013-09-16 13:48:00,70.3,55.8,30.25,SE,126,1.0,3.0,60,0.00,,,0.01,Wunderground v.1.15,2013-09-16 18:48:00,
2013-09-16 13:50:00,70.2,55.2,30.25,SSE,155,1.0,3.0,59,0.00,,,0.01,Wunderground v.1.15,2013-09-16 18:50:00,
2013-09-16 13:52:00,70.0,55.5,30.25,SSE,158,1.0,3.0,60,0.00,,,0.01,Wunderground v.1.15,2013-09-16 18:52:00,
2013-09-16 13:54:00,69.8,55.3,30.25,SSE,156,1.0,3.0,60,0.00,,,0.01,Wunderground v.1.15,2013-09-16 18:54:00,
2013-09-16 13:56:00,69.7,55.6,30.25,ESE,120,1.0,3.0,61,0.00,,,0.01,Wunderground v.1.15,2013-09-16 18:56:00,
2013-09-16 13:57:00,69.8,55.7,30.25,SE,134,1.0,3.0,61,0.00,,,0.01,Wunderground v.1.15,2013-09-16 18:57:00,
2013-09-16 13:59:00,69.8,55.7,30.25,SE,139,1.0,3.0,61,0.00,,,0.01,Wunderground v.1.15,2013-09-16 18:59:00,
2013-09-16 14:02:00,69.6,54.2,30.25,SSW,195,1.0,3.0,58,0.00,,,0.01,Wunderground v.1.15,2013-09-16 19:02:00,
2013-09-16 14:06:00,69.1,54.6,30.24,SE,136,2.0,3.0,60,0.00,,,0.01,Wunderground v.1.15,2013-09-16 19:06:00,
2013-09-16 14:08:00,69.0,55.4,30.24,NE,55,2.0,3.0,62,0.00,,,0.01,Wunderground v.1.15,2013-09-16 19:08:00,
2013-09-16 14:10:00,68.8,54.8,30.24,East,82,2.0,2.0,61,0.00,,,0.01,Wunderground v.1.15,2013-09-16 19:10:00,
2013-09-16 14:12:00,68.6,54.2,30.24,ESE,117,2.0,3.0,60,0.00,,,0.01,Wunderground v.1.15,2013-09-16 19:12:00,
2013-09-16 14:16:00,68.2,55.1,30.24,SE,141,1.0,3.0,63,0.00,,,0.01,Wunderground v.1.15,2013-09-16 19:16:00,
2013-09-16 14:17:00,68.1,55.5,30.24,SE,128,1.0,3.0,64,0.00,,,0.01,Wunderground v.1.15,2013-09-16 19:17:00,
2013-09-16 14:19:00,68.1,55.5,30.24,SE,145,1.0,3.0,64,0.00,,,0.01,Wunderground v.1.15,2013-09-16 19:19:00,
2013-09-16 14:22:00,68.1,55.5,30.24,SE,131,1.0,3.0,64,0.00,,,0.01,Wunderground v.1.15,2013-09-16 19:22:00,
2013-09-16 14:26:00,68.8,54.8,30.24,ESE,120,1.0,3.0,61,0.00,,,0.01,Wunderground v.1.15,2013-09-16 19:26:00,
2013-09-16 14:28:00,69.1,55.1,30.23,SE,131,1.0,3.0,61,0.00,,,0.01,Wunderground v.1.15,2013-09-16 19:28:00,
2013-09-16 14:30:00,69.5,55.5,30.24,SE,128,1.0,3.0,61,0.00,,,0.01,Wunderground v.1.15,2013-09-16 19:30:00,
2013-09-16 14:34:00,70.3,55.8,30.23,SSE,165,1.0,3.0,60,0.00,,,0.01,Wunderground v.1.15,2013-09-16 19:34:00,
2013-09-16 14:36:00,70.7,55.2,30.23,SSE,162,2.0,3.0,58,0.00,,,0.01,Wunderground v.1.15,2013-09-16 19:36:00,
2013-09-16 14:38:00,70.8,55.3,30.23,SSW,197,2.0,3.0,58,0.00,,,0.01,Wunderground v.1.15,2013-09-16 19:38:00,
2013-09-16 14:41:00,71.1,56.0,30.23,East,94,1.0,3.0,59,0.00,,,0.01,Wunderground v.1.15,2013-09-16 19:41:00,
2013-09-16 14:44:00,71.1,56.0,30.23,SE,132,1.0,3.0,59,0.00,,,0.01,Wunderground v.1.15,2013-09-16 19:44:00,
2013-09-16 14:46:00,71.1,56.5,30.23,SSE,153,1.0,3.0,60,0.00,,,0.01,Wunderground v.1.15,2013-09-16 19:46:00,
2013-09-16 14:50:00,71.2,54.7,30.22,SSE,160,2.0,3.0,56,0.00,,,0.01,Wunderground v.1.15,2013-09-16 19:50:00,
2013-09-16 14:52:00,71.1,55.1,30.22,SSE,165,2.0,3.0,57,0.00,,,0.01,Wunderground v.1.15,2013-09-16 19:52:00,
2013-09-16 14:54:00,70.8,55.3,30.22,SE,146,2.0,3.0,58,0.00,,,0.01,Wunderground v.1.15,2013-09-16 19:54:00,
2013-09-16 14:56:00,70.6,55.1,30.22,SSE,159,2.0,3.0,58,0.00,,,0.01,Wunderground v.1.15,2013-09-16 19:56:00,
2013-09-16 15:00:00,70.6,54.6,30.22,SSE,165,2.0,2.0,57,0.00,,,0.01,Wunderground v.1.15,2013-09-16 20:00:00,
2013-09-16 15:03:00,70.4,54.9,30.22,SE,140,2.0,3.0,58,0.00,,,0.01,Wunderground v.1.15,2013-09-16 20:03:00,
2013-09-16 15:06:00,70.1,54.6,30.21,South,184,2.0,3.0,58,0.00,,,0.01,Wunderground v.1.15,2013-09-16 20:06:00,
2013-09-16 15:08:00,69.9,54.9,30.21,SE,128,2.0,3.0,59,0.00,,,0.01,Wunderground v.1.15,2013-09-16 20:08:00,
2013-09-16 15:14:00,69.9,55.4,30.21,South,179,2.0,3.0,60,0.00,,,0.01,Wunderground v.1.15,2013-09-16 20:14:00,
2013-09-16 15:16:00,70.2,56.1,30.21,SE,135,1.0,3.0,61,0.00,,,0.01,Wunderground v.1.15,2013-09-16 20:16:00,
2013-09-16 15:18:00,70.6,56.0,30.21,SE,131,1.0,3.0,60,0.00,,,0.01,Wunderground v.1.15,2013-09-16 20:18:00,
2013-09-16 15:20:00,71.1,55.1,30.20,SSE,159,1.0,3.0,57,0.00,,,0.01,Wunderground v.1.15,2013-09-16 20:20:00,
2013-09-16 15:21:00,71.4,55.4,30.21,SSE,156,1.0,3.0,57,0.00,,,0.01,Wunderground v.1.15,2013-09-16 20:21:00,
2013-09-16 15:28:00,71.4,54.9,30.20,SSE,167,1.0,3.0,56,0.00,,,0.01,Wunderground v.1.15,2013-09-16 20:28:00,
2013-09-16 15:30:00,71.4,55.9,30.20,SE,141,1.0,3.0,58,0.00,,,0.01,Wunderground v.1.15,2013-09-16 20:30:00,
2013-09-16 15:32:00,71.4,55.9,30.20,ESE,111,1.0,3.0,58,0.00,,,0.01,Wunderground v.1.15,2013-09-16 20:32:00,
2013-09-16 15:38:00,71.4,54.9,30.19,SSW,208,2.0,4.0,56,0.00,,,0.01,Wunderground v.1.15,2013-09-16 20:38:00,
2013-09-16 15:40:00,71.4,54.4,30.19,SSW,193,2.0,3.0,55,0.00,,,0.01,Wunderground v.1.15,2013-09-16 20:40:00,
2013-09-16 15:42:00,71.5,54.5,30.19,SE,134,2.0,3.0,55,0.00,,,0.01,Wunderground v.1.15,2013-09-16 20:42:00,
2013-09-16 15:43:00,71.7,55.7,30.19,ESE,108,2.0,3.0,57,0.00,,,0.01,Wunderground v.1.15,2013-09-16 20:43:00,
2013-09-16 15:45:00,72.0,54.9,30.19,ESE,122,2.0,3.0,55,0.00,,,0.01,Wunderground v.1.15,2013-09-16 20:45:00,
2013-09-16 15:50:00,72.2,54.6,30.19,SW,218,2.0,3.0,54,0.00,,,0.01,Wunderground v.1.15,2013-09-16 20:50:00,
2013-09-16 15:52:00,72.0,54.9,30.19,SSE,151,2.0,3.0,55,0.00,,,0.01,Wunderground v.1.15,2013-09-16 20:52:00,
2013-09-16 15:56:00,71.6,54.6,30.19,SE,139,2.0,3.0,55,0.00,,,0.01,Wunderground v.1.15,2013-09-16 20:56:00,
2013-09-16 15:58:00,71.3,54.3,30.18,SE,128,2.0,3.0,55,0.00,,,0.01,Wunderground v.1.15,2013-09-16 20:58:00,
2013-09-16 16:04:00,71.0,54.5,30.18,SSE,151,2.0,3.0,56,0.00,,,0.01,Wunderground v.1.15,2013-09-16 21:04:00,
2013-09-16 16:05:00,71.1,55.6,30.18,South,170,2.0,3.0,58,0.00,,,0.01,Wunderground v.1.15,2013-09-16 21:05:00,
2013-09-16 16:07:00,71.1,54.6,30.18,SE,134,2.0,3.0,56,0.00,,,0.01,Wunderground v.1.15,2013-09-16 21:07:00,
2013-09-16 16:11:00,71.1,55.1,30.18,SSE,148,2.0,3.0,57,0.00,,,0.01,Wunderground v.1.15,2013-09-16 21:11:00,
2013-09-16 16:14:00,71.1,54.1,30.17,SE,129,2.0,3.0,55,0.00,,,0.01,Wunderground v.1.15,2013-09-16 21:14:00,
2013-09-16 16:18:00,70.9,54.9,30.17,SE,136,2.0,3.0,57,0.00,,,0.01,Wunderground v.1.15,2013-09-16 21:18:00,
2013-09-16 16:22:00,70.7,54.2,30.17,East,88,2.0,3.0,56,0.00,,,0.01,Wunderground v.1.15,2013-09-16 21:22:00,
2013-09-16 16:24:00,70.5,54.5,30.17,SE,139,2.0,3.0,57,0.00,,,0.01,Wunderground v.1.15,2013-09-16 21:24:00,
2013-09-16 16:27:00,70.1,54.6,30.17,SE,143,2.0,3.0,58,0.00,,,0.01,Wunderground v.1.15,2013-09-16 21:27:00,
2013-09-16 16:29:00,69.9,54.0,30.17,SSE,152,2.0,2.0,57,0.00,,,0.01,Wunderground v.1.15,2013-09-16 21:29:00,
2013-09-16 16:33:00,69.6,54.2,30.17,ESE,122,2.0,3.0,58,0.00,,,0.01,Wunderground v.1.15,2013-09-16 21:33:00,
2013-09-16 16:38:00,69.1,53.7,30.17,SE,131,2.0,3.0,58,0.00,,,0.01,Wunderground v.1.15,2013-09-16 21:38:00,
2013-09-16 16:40:00,69.3,55.3,30.17,SE,125,2.0,3.0,61,0.00,,,0.01,Wunderground v.1.15,2013-09-16 21:40:00,
2013-09-16 16:42:00,69.5,54.5,30.17,SE,131,2.0,3.0,59,0.00,,,0.01,Wunderground v.1.15,2013-09-16 21:42:00,
2013-09-16 16:44:00,69.7,54.3,30.16,South,183,2.0,3.0,58,0.00,,,0.01,Wunderground v.1.15,2013-09-16 21:44:00,
2013-09-16 16:46:00,69.9,54.4,30.16,SE,134,2.0,3.0,58,0.00,,,0.01,Wunderground v.1.15,2013-09-16 21:46:00,
2013-09-16 16:47:00,69.8,53.9,30.16,NE,52,2.0,3.0,57,0.00,,,0.01,Wunderground v.1.15,2013-09-16 21:47:00,
2013-09-16 16:51:00,69.6,54.6,30.16,ESE,121,2.0,3.0,59,0.00,,,0.01,Wunderground v.1.15,2013-09-16 21:51:00,
2013-09-16 16:53:00,69.5,54.5,30.16,SE,133,1.0,3.0,59,0.00,,,0.01,Wunderground v.1.15,2013-09-16 21:53:00,
2013-09-16 16:56:00,69.7,55.2,30.16,SE,135,1.0,3.0,60,0.00,,,0.01,Wunderground v.1.15,2013-09-16 21:56:00,
2013-09-16 17:00:00,70.0,55.9,30.16,South,176,1.0,3.0,61,0.00,,,0.01,Wunderground v.1.15,2013-09-16 22:00:00,
2013-09-16 17:02:00,70.0,55.0,30.16,SE,136,2.0,3.0,59,0.00,,,0.01,Wunderground v.1.15,2013-09-16 22:02:00,
2013-09-16 17:06:00,69.7,55.2,30.16,SE,141,2.0,3.0,60,0.00,,,0.01,Wunderground v.1.15,2013-09-16 22:06:00,
2013-09-16 17:11:00,69.4,55.4,30.16,SE,141,1.0,3.0,61,0.00,,,0.01,Wunderground v.1.15,2013-09-16 22:11:00,
2013-09-16 17:13:00,69.3,55.3,30.16,ESE,123,1.0,3.0,61,0.00,,,0.01,Wunderground v.1.15,2013-09-16 22:13:00,
2013-09-16 17:15:00,69.2,54.7,30.16,SE,145,1.0,3.0,60,0.00,,,0.01,Wunderground v.1.15,2013-09-16 22:15:00,
2013-09-16 17:18:00,69.2,54.7,30.16,SE,125,1.0,3.0,60,0.00,,,0.01,Wunderground v.1.15,2013-09-16 22:18:00,
2013-09-16 17:20:00,69.4,54.9,30.16,SSE,150,1.0,3.0,60,0.00,,,0.01,Wunderground v.1.15,2013-09-16 22:20:00,
2013-09-16 17:24:00,70.2,55.7,30.15,South,169,1.0,3.0,60,0.00,,,0.01,Wunderground v.1.15,2013-09-16 22:24:00,
2013-09-16 17:28:00,70.7,54.7,30.15,ESE,118,1.0,3.0,57,0.00,,,0.01,Wunderground v.1.15,2013-09-16 22:28:00,
2013-09-16 17:33:00,71.2,55.7,30.15,East,94,1.0,3.0,58,0.00,,,0.01,Wunderground v.1.15,2013-09-16 22:33:00,
2013-09-16 17:40:00,70.4,54.4,30.15,SE,128,2.0,3.0,57,0.00,,,0.01,Wunderground v.1.15,2013-09-16 22:40:00,
2013-09-16 17:42:00,70.0,54.5,30.15,SE,128,2.0,3.0,58,0.00,,,0.01,Wunderground v.1.15,2013-09-16 22:42:00,
2013-09-16 17:44:00,69.6,54.2,30.15,SE,142,2.0,3.0,58,0.00,,,0.01,Wunderground v.1.15,2013-09-16 22:44:00,
2013-09-16 17:46:00,69.2,54.3,30.15,SE,143,2.0,3.0,59,0.00,,,0.01,Wunderground v.1.15,2013-09-16 22:46:00,
2013-09-16 17:48:00,69.0,54.1,30.15,SE,145,2.0,3.0,59,0.00,,,0.01,Wunderground v.1.15,2013-09-16 22:48:00,
2013-09-16 17:50:00,68.9,53.5,30.15,SE,139,2.0,2.0,58,0.00,,,0.01,Wunderground v.1.15,2013-09-16 22:50:00,
2013-09-16 17:51:00,68.9,54.0,30.15,SE,134,2.0,3.0,59,0.00,,,0.01,Wunderground v.1.15,2013-09-16 22:51:00,
2013-09-16 17:55:00,69.2,54.3,30.15,SE,143,1.0,3.0,59,0.00,,,0.01,Wunderground v.1.15,2013-09-16 22:55:00,
2013-09-16 17:57:00,69.4,54.4,30.15,SE,135,1.0,3.0,59,0.00,,,0.01,Wunderground v.1.15,2013-09-16 22:57:00,
2013-09-16 18:04:00,69.8,54.4,30.15,SE,131,1.0,3.0,58,0.00,,,0.01,Wunderground v.1.15,2013-09-16 23:04:00,
2013-09-16 18:06:00,69.8,54.4,30.14,SE,138,1.0,3.0,58,0.00,,,0.01,Wunderground v.1.15,2013-09-16 23:06:00,
2013-09-16 18:08:00,69.8,54.8,30.14,SE,126,2.0,3.0,59,0.00,,,0.01,Wunderground v.1.15,2013-09-16 23:08:00,
2013-09-16 18:10:00,69.7,54.7,30.14,SE,139,2.0,2.0,59,0.00,,,0.01,Wunderground v.1.15,2013-09-16 23:10:00,
2013-09-16 18:13:00,69.8,54.4,30.15,SE,134,1.0,3.0,58,0.00,,,0.01,Wunderground v.1.15,2013-09-16 23:13:00,
2013-09-16 18:17:00,69.9,55.4,30.14,SE,143,1.0,3.0,60,0.00,,,0.01,Wunderground v.1.15,2013-09-16 23:17:00,
2013-09-16 18:19:00,69.8,54.8,30.14,SSE,163,1.0,3.0,59,0.00,,,0.01,Wunderground v.1.15,2013-09-16 23:19:00,
2013-09-16 18:22:00,69.5,55.0,30.14,SE,134,1.0,3.0,60,0.00,,,0.01,Wunderground v.1.15,2013-09-16 23:22:00,
2013-09-16 18:26:00,69.1,55.1,30.14,SE,137,1.0,3.0,61,0.00,,,0.01,Wunderground v.1.15,2013-09-16 23:26:00,
2013-09-16 18:28:00,68.9,54.9,30.14,SSE,159,1.0,3.0,61,0.00,,,0.01,Wunderground v.1.15,2013-09-16 23:28:00,
2013-09-16 18:32:00,68.4,55.3,30.14,SSE,148,2.0,3.0,63,0.00,,,0.01,Wunderground v.1.15,2013-09-16 23:32:00,
2013-09-16 18:33:00,68.2,54.2,30.14,SE,145,2.0,3.0,61,0.00,,,0.01,Wunderground v.1.15,2013-09-16 23:33:00,
2013-09-16 18:35:00,67.9,54.8,30.14,SE,143,2.0,3.0,63,0.00,,,0.01,Wunderground v.1.15,2013-09-16 23:35:00,
2013-09-16 18:37:00,67.7,54.6,30.14,SE,132,2.0,3.0,63,0.00,,,0.01,Wunderground v.1.15,2013-09-16 23:37:00,
2013-09-16 18:39:00,67.5,54.9,30.14,ESE,122,2.0,3.0,64,0.00,,,0.01,Wunderground v.1.15,2013-09-16 23:39:00,
2013-09-16 18:41:00,67.3,54.7,30.14,SSE,158,2.0,3.0,64,0.00,,,0.01,Wunderground v.1.15,2013-09-16 23:41:00,
2013-09-16 18:44:00,67.1,54.9,30.14,SE,139,2.0,3.0,65,0.00,,,0.01,Wunderground v.1.15,2013-09-16 23:44:00,
2013-09-16 18:48:00,66.5,54.8,30.14,SE,135,2.0,3.0,66,0.00,,,0.01,Wunderground v.1.15,2013-09-16 23:48:00,
2013-09-16 18:50:00,66.2,54.5,30.14,SE,136,2.0,3.0,66,0.00,,,0.01,Wunderground v.1.15,2013-09-16 23:50:00,
2013-09-16 18:54:00,65.6,54.8,30.14,SE,141,2.0,3.0,68,0.00,,,0.01,Wunderground v.1.15,2013-09-16 23:54:00,
2013-09-16 18:57:00,65.1,54.7,30.14,SSE,155,2.0,3.0,69,0.00,,,0.01,Wunderground v.1.15,2013-09-16 23:57:00,
2013-09-16 18:59:00,64.9,54.9,30.13,SE,137,2.0,3.0,70,0.00,,,0.01,Wunderground v.1.15,2013-09-16 23:59:00,
2013-09-16 19:01:00,64.7,55.1,30.13,SE,145,2.0,3.0,71,0.00,,,0.01,Wunderground v.1.15,2013-09-17 00:01:00,
2013-09-16 19:06:00,64.2,54.6,30.13,SE,143,2.0,3.0,71,0.00,,,0.01,Wunderground v.1.15,2013-09-17 00:06:00,
2013-09-16 19:08:00,64.0,54.8,30.13,SSE,158,2.0,3.0,72,0.00,,,0.01,Wunderground v.1.15,2013-09-17 00:08:00,
2013-09-16 19:12:00,63.6,54.8,30.13,SE,135,3.0,3.0,73,0.00,,,0.01,Wunderground v.1.15,2013-09-17 00:12:00,
2013-09-16 19:14:00,63.5,54.7,30.13,South,172,3.0,3.0,73,0.00,,,0.01,Wunderground v.1.15,2013-09-17 00:14:00,
2013-09-16 19:16:00,63.3,54.5,30.13,SE,136,2.0,3.0,73,0.00,,,0.01,Wunderground v.1.15,2013-09-17 00:16:00,
2013-09-16 19:19:00,62.9,54.9,30.13,SE,139,2.0,3.0,75,0.00,,,0.01,Wunderground v.1.15,2013-09-17 00:19:00,
2013-09-16 19:21:00,62.8,54.8,30.13,SE,145,2.0,3.0,75,0.00,,,0.01,Wunderground v.1.15,2013-09-17 00:21:00,
2013-09-16 19:26:00,62.4,54.7,30.13,SE,141,3.0,4.0,76,0.00,,,0.01,Wunderground v.1.15,2013-09-17 00:26:00,
2013-09-16 19:28:00,62.2,54.5,30.13,SE,137,3.0,4.0,76,0.00,,,0.01,Wunderground v.1.15,2013-09-17 00:28:00,
2013-09-16 19:30:00,62.1,54.4,30.13,SE,135,3.0,3.0,76,0.00,,,0.01,Wunderground v.1.15,2013-09-17 00:30:00,
2013-09-16 19:32:00,61.9,54.6,30.13,SE,131,2.0,3.0,77,0.00,,,0.01,Wunderground v.1.15,2013-09-17 00:32:00,
2013-09-16 19:34:00,61.8,54.5,30.13,SE,125,2.0,3.0,77,0.00,,,0.01,Wunderground v.1.15,2013-09-17 00:34:00,
2013-09-16 19:36:00,61.7,54.8,30.13,SE,139,2.0,3.0,78,0.00,,,0.01,Wunderground v.1.15,2013-09-17 00:36:00,
2013-09-16 19:37:00,61.5,54.2,30.13,SE,134,2.0,3.0,77,0.00,,,0.01,Wunderground v.1.15,2013-09-17 00:37:00,
2013-09-16 19:39:00,61.3,54.0,30.13,SE,139,2.0,3.0,77,0.00,,,0.01,Wunderground v.1.15,2013-09-17 00:39:00,
2013-09-16 19:41:00,61.2,54.3,30.13,SSE,162,2.0,3.0,78,0.00,,,0.01,Wunderground v.1.15,2013-09-17 00:41:00,
2013-09-16 19:43:00,61.0,54.4,30.13,SE,139,2.0,3.0,79,0.00,,,0.01,Wunderground v.1.15,2013-09-17 00:43:00,
2013-09-16 19:48:00,60.7,54.1,30.13,SE,135,2.0,3.0,79,0.00,,,0.01,Wunderground v.1.15,2013-09-17 00:48:00,
2013-09-16 19:50:00,60.5,54.3,30.13,SE,139,2.0,3.0,80,0.00,,,0.01,Wunderground v.1.15,2013-09-17 00:50:00,
2013-09-16 19:54:00,60.2,53.7,30.13,SE,131,2.0,3.0,79,0.00,,,0.01,Wunderground v.1.15,2013-09-17 00:54:00,
2013-09-16 19:56:00,60.1,53.9,30.13,SE,141,2.0,3.0,80,0.00,,,0.01,Wunderground v.1.15,2013-09-17 00:56:00,
2013-09-16 19:58:00,59.9,53.7,30.13,SE,139,2.0,3.0,80,0.00,,,0.01,Wunderground v.1.15,2013-09-17 00:58:00,
2013-09-16 20:01:00,59.5,53.3,30.13,SSE,150,2.0,3.0,80,0.00,,,0.01,Wunderground v.1.15,2013-09-17 01:01:00,
2013-09-16 20:03:00,59.4,53.6,30.14,SE,142,2.0,3.0,81,0.00,,,0.01,Wunderground v.1.15,2013-09-17 01:03:00,
2013-09-16 20:10:00,59.1,53.9,30.13,SE,137,2.0,2.0,83,0.00,,,0.01,Wunderground v.1.15,2013-09-17 01:10:00,
2013-09-16 20:12:00,59.0,53.5,30.13,SE,134,2.0,3.0,82,0.00,,,0.01,Wunderground v.1.15,2013-09-17 01:12:00,
2013-09-16 20:14:00,58.8,53.3,30.14,SE,137,2.0,3.0,82,0.00,,,0.01,Wunderground v.1.15,2013-09-17 01:14:00,
2013-09-16 20:16:00,58.7,53.5,30.14,SE,143,2.0,3.0,83,0.00,,,0.01,Wunderground v.1.15,2013-09-17 01:16:00,
2013-09-16 20:20:00,58.6,53.5,30.14,SE,144,2.0,3.0,83,0.00,,,0.01,Wunderground v.1.15,2013-09-17 01:20:00,
2013-09-16 20:21:00,58.5,53.4,30.14,SSE,155,2.0,3.0,83,0.00,,,0.01,Wunderground v.1.15,2013-09-17 01:21:00,
2013-09-16 20:23:00,58.3,53.2,30.14,SE,128,2.0,3.0,83,0.00,,,0.01,Wunderground v.1.15,2013-09-17 01:23:00,
2013-09-16 20:27:00,58.2,53.4,30.14,SE,134,2.0,3.0,84,0.00,,,0.01,Wunderground v.1.15,2013-09-17 01:27:00,
2013-09-16 20:32:00,57.9,53.1,30.14,SE,139,2.0,3.0,84,0.00,,,0.01,Wunderground v.1.15,2013-09-17 01:32:00,
2013-09-16 20:34:00,57.8,53.0,30.14,SSE,163,2.0,3.0,84,0.00,,,0.01,Wunderground v.1.15,2013-09-17 01:34:00,
2013-09-16 20:36:00,57.7,52.9,30.14,ESE,103,2.0,4.0,84,0.00,,,0.01,Wunderground v.1.15,2013-09-17 01:36:00,
2013-09-16 20:38:00,57.6,52.8,30.14,SSE,150,2.0,4.0,84,0.00,,,0.01,Wunderground v.1.15,2013-09-17 01:38:00,
2013-09-16 20:40:00,57.5,53.0,30.14,SE,135,2.0,3.0,85,0.00,,,0.01,Wunderground v.1.15,2013-09-17 01:40:00,
2013-09-16 20:43:00,57.4,53.2,30.14,SE,146,2.0,3.0,86,0.00,,,0.01,Wunderground v.1.15,2013-09-17 01:43:00,
2013-09-16 20:45:00,57.3,53.1,30.14,SE,135,2.0,3.0,86,0.00,,,0.01,Wunderground v.1.15,2013-09-17 01:45:00,
2013-09-16 20:49:00,57.2,53.0,30.14,SE,142,2.0,3.0,86,0.00,,,0.01,Wunderground v.1.15,2013-09-17 01:49:00,
2013-09-16 20:52:00,57.0,52.9,30.14,SSE,156,2.0,3.0,86,0.00,,,0.01,Wunderground v.1.15,2013-09-17 01:52:00,
2013-09-16 20:54:00,57.0,52.9,30.14,SE,124,2.0,3.0,86,0.00,,,0.01,Wunderground v.1.15,2013-09-17 01:54:00,
2013-09-16 20:56:00,56.9,53.1,30.14,SE,141,2.0,3.0,87,0.00,,,0.01,Wunderground v.1.15,2013-09-17 01:56:00,
2013-09-16 20:58:00,56.8,53.0,30.14,SE,137,2.0,3.0,87,0.00,,,0.01,Wunderground v.1.15,2013-09-17 01:58:00,
2013-09-16 21:02:00,56.6,52.8,30.14,SE,130,2.0,3.0,87,0.00,,,0.01,Wunderground v.1.15,2013-09-17 02:02:00,
2013-09-16 21:04:00,56.5,52.7,30.14,SE,125,2.0,3.0,87,0.00,,,0.01,Wunderground v.1.15,2013-09-17 02:04:00,
2013-09-16 21:06:00,56.4,52.6,30.14,SE,127,2.0,3.0,87,0.00,,,0.01,Wunderground v.1.15,2013-09-17 02:06:00,
2013-09-16 21:07:00,56.3,52.5,30.14,SE,138,2.0,3.0,87,0.00,,,0.01,Wunderground v.1.15,2013-09-17 02:07:00,
2013-09-16 21:09:00,56.2,52.4,30.14,ESE,120,2.0,3.0,87,0.00,,,0.01,Wunderground v.1.15,2013-09-17 02:09:00,
2013-09-16 21:12:00,56.1,52.3,30.14,South,169,2.0,3.0,87,0.00,,,0.01,Wunderground v.1.15,2013-09-17 02:12:00,
2013-09-16 21:14:00,56.1,52.6,30.14,SE,142,2.0,3.0,88,0.00,,,0.01,Wunderground v.1.15,2013-09-17 02:14:00,
2013-09-16 21:16:00,56.0,52.5,30.14,SE,139,2.0,3.0,88,0.00,,,0.01,Wunderground v.1.15,2013-09-17 02:16:00,
2013-09-16 21:18:00,56.0,52.5,30.14,SE,135,2.0,3.0,88,0.00,,,0.01,Wunderground v.1.15,2013-09-17 02:18:00,
2013-09-16 21:22:00,55.9,52.7,30.14,SE,136,2.0,3.0,89,0.00,,,0.01,Wunderground v.1.15,2013-09-17 02:22:00,
2013-09-16 21:24:00,55.9,52.7,30.14,SSE,159,2.0,3.0,89,0.00,,,0.01,Wunderground v.1.15,2013-09-17 02:24:00,
2013-09-16 21:28:00,55.7,52.2,30.14,SE,141,2.0,3.0,88,0.00,,,0.01,Wunderground v.1.15,2013-09-17 02:28:00,
2013-09-16 21:29:00,55.7,52.5,30.14,SE,139,2.0,3.0,89,0.00,,,0.01,Wunderground v.1.15,2013-09-17 02:29:00,
2013-09-16 21:31:00,55.6,52.4,30.14,SE,141,2.0,3.0,89,0.00,,,0.01,Wunderground v.1.15,2013-09-17 02:31:00,
2013-09-16 21:34:00,55.5,52.0,30.14,ESE,121,2.0,3.0,88,0.00,,,0.01,Wunderground v.1.15,2013-09-17 02:34:00,
2013-09-16 21:36:00,55.4,52.2,30.14,SE,136,2.0,3.0,89,0.00,,,0.01,Wunderground v.1.15,2013-09-17 02:36:00,
2013-09-16 21:38:00,55.3,51.8,30.14,SE,124,2.0,3.0,88,0.00,,,0.01,Wunderground v.1.15,2013-09-17 02:38:00,
2013-09-16 21:40:00,55.2,52.0,30.14,SE,135,2.0,3.0,89,0.00,,,0.01,Wunderground v.1.15,2013-09-17 02:40:00,
2013-09-16 21:42:00,55.2,52.0,30.14,SE,145,2.0,3.0,89,0.00,,,0.01,Wunderground v.1.15,2013-09-17 02:42:00,
2013-09-16 21:48:00,55.1,52.2,30.14,SSE,150,2.0,3.0,90,0.00,,,0.01,Wunderground v.1.15,2013-09-17 02:48:00,
2013-09-16 21:49:00,55.0,52.1,30.14,SSE,168,1.0,3.0,90,0.00,,,0.01,Wunderground v.1.15,2013-09-17 02:49:00,
2013-09-16 21:53:00,55.0,52.1,30.15,SE,135,2.0,3.0,90,0.00,,,0.01,Wunderground v.1.15,2013-09-17 02:53:00,
2013-09-16 21:56:00,54.9,52.0,30.14,SE,134,2.0,3.0,90,0.00,,,0.01,Wunderground v.1.15,2013-09-17 02:56:00,
2013-09-16 21:58:00,54.8,51.9,30.14,SSE,149,2.0,3.0,90,0.00,,,0.01,Wunderground v.1.15,2013-09-17 02:58:00,
2013-09-16 22:00:00,54.8,51.9,30.14,South,187,2.0,3.0,90,0.00,,,0.01,Wunderground v.1.15,2013-09-17 03:00:00,
2013-09-16 22:04:00,54.8,51.9,30.14,SE,138,2.0,3.0,90,0.00,,,0.01,Wunderground v.1.15,2013-09-17 03:04:00,
2013-09-16 22:06:00,54.8,51.9,30.14,SE,129,2.0,3.0,90,0.00,,,0.01,Wunderground v.1.15,2013-09-17 03:06:00,
2013-09-16 22:08:00,54.7,51.5,30.14,ESE,118,2.0,3.0,89,0.00,,,0.01,Wunderground v.1.15,2013-09-17 03:08:00,
2013-09-16 22:10:00,54.7,51.8,30.15,SSE,159,2.0,2.0,90,0.00,,,0.01,Wunderground v.1.15,2013-09-17 03:10:00,
2013-09-16 22:11:00,54.6,51.7,30.15,SSE,156,2.0,3.0,90,0.00,,,0.01,Wunderground v.1.15,2013-09-17 03:11:00,
2013-09-16 22:13:00,54.6,51.7,30.15,SSE,157,2.0,3.0,90,0.00,,,0.01,Wunderground v.1.15,2013-09-17 03:13:00,
2013-09-16 22:16:00,54.5,51.6,30.15,SSE,160,2.0,3.0,90,0.00,,,0.01,Wunderground v.1.15,2013-09-17 03:16:00,
2013-09-16 22:18:00,54.4,51.5,30.15,SSE,150,2.0,4.0,90,0.00,,,0.01,Wunderground v.1.15,2013-09-17 03:18:00,
2013-09-16 22:20:00,54.3,51.1,30.15,SE,131,2.0,2.0,89,0.00,,,0.01,Wunderground v.1.15,2013-09-17 03:20:00,
2013-09-16 22:24:00,54.2,51.0,30.15,ESE,122,3.0,3.0,89,0.00,,,0.01,Wunderground v.1.15,2013-09-17 03:24:00,
2013-09-16 22:26:00,54.2,51.3,30.15,SE,129,3.0,3.0,90,0.00,,,0.01,Wunderground v.1.15,2013-09-17 03:26:00,
2013-09-16 22:28:00,54.2,51.3,30.15,SE,135,3.0,3.0,90,0.00,,,0.01,Wunderground v.1.15,2013-09-17 03:28:00,
2013-09-16 22:30:00,54.2,51.3,30.15,SE,141,2.0,3.0,90,0.00,,,0.01,Wunderground v.1.15,2013-09-17 03:30:00,
2013-09-16 22:33:00,54.3,51.4,30.15,SSE,148,2.0,3.0,90,0.00,,,0.01,Wunderground v.1.15,2013-09-17 03:33:00,
2013-09-16 22:38:00,54.5,51.6,30.15,SE,127,2.0,3.0,90,0.00,,,0.01,Wunderground v.1.15,2013-09-17 03:38:00,
2013-09-16 22:40:00,54.5,51.6,30.15,ESE,107,2.0,3.0,90,0.00,,,0.01,Wunderground v.1.15,2013-09-17 03:40:00,
2013-09-16 22:42:00,54.6,51.7,30.15,SE,141,2.0,3.0,90,0.00,,,0.01,Wunderground v.1.15,2013-09-17 03:42:00,
2013-09-16 22:44:00,54.6,51.4,30.15,SE,142,2.0,3.0,89,0.00,,,0.01,Wunderground v.1.15,2013-09-17 03:44:00,
2013-09-16 22:46:00,54.6,51.4,30.15,SE,140,2.0,3.0,89,0.00,,,0.01,Wunderground v.1.15,2013-09-17 03:46:00,
2013-09-16 22:48:00,54.7,51.8,30.15,SSE,155,2.0,3.0,90,0.00,,,0.01,Wunderground v.1.15,2013-09-17 03:48:00,
2013-09-16 22:50:00,54.7,51.8,30.15,SSE,148,2.0,3.0,90,0.00,,,0.01,Wunderground v.1.15,2013-09-17 03:50:00,
2013-09-16 22:52:00,54.7,51.5,30.15,SSE,149,2.0,3.0,89,0.00,,,0.01,Wunderground v.1.15,2013-09-17 03:52:00,
2013-09-16 22:53:00,54.7,51.5,30.15,SSE,159,2.0,4.0,89,0.00,,,0.01,Wunderground v.1.15,2013-09-17 03:53:00,
2013-09-16 22:55:00,54.6,51.1,30.15,SE,134,2.0,4.0,88,0.00,,,0.01,Wunderground v.1.15,2013-09-17 03:55:00,
2013-09-16 22:57:00,54.5,51.0,30.15,SSE,155,2.0,4.0,88,0.00,,,0.01,Wunderground v.1.15,2013-09-17 03:57:00,
2013-09-16 23:01:00,54.4,51.2,30.15,SSE,159,2.0,3.0,89,0.00,,,0.01,Wunderground v.1.15,2013-09-17 04:01:00,
2013-09-16 23:04:00,54.4,51.5,30.15,South,169,2.0,3.0,90,0.00,,,0.01,Wunderground v.1.15,2013-09-17 04:04:00,
2013-09-16 23:08:00,54.3,51.1,30.15,SE,145,2.0,3.0,89,0.00,,,0.01,Wunderground v.1.15,2013-09-17 04:08:00,
2013-09-16 23:10:00,54.3,51.4,30.15,SE,138,2.0,3.0,90,0.00,,,0.01,Wunderground v.1.15,2013-09-17 04:10:00,
2013-09-16 23:12:00,54.2,51.3,30.15,SSE,154,2.0,3.0,90,0.00,,,0.01,Wunderground v.1.15,2013-09-17 04:12:00,
2013-09-16 23:14:00,54.2,51.3,30.15,South,180,2.0,3.0,90,0.00,,,0.01,Wunderground v.1.15,2013-09-17 04:14:00,
2013-09-16 23:17:00,54.1,51.2,30.15,SE,134,2.0,4.0,90,0.00,,,0.01,Wunderground v.1.15,2013-09-17 04:17:00,
2013-09-16 23:19:00,54.1,51.2,30.15,SE,136,2.0,3.0,90,0.00,,,0.01,Wunderground v.1.15,2013-09-17 04:19:00,
2013-09-16 23:21:00,54.1,51.2,30.15,SE,140,3.0,3.0,90,0.00,,,0.01,Wunderground v.1.15,2013-09-17 04:21:00,
2013-09-16 23:26:00,54.0,51.1,30.15,SE,128,2.0,3.0,90,0.00,,,0.01,Wunderground v.1.15,2013-09-17 04:26:00,
2013-09-16 23:28:00,54.0,51.1,30.15,SE,129,2.0,3.0,90,0.00,,,0.01,Wunderground v.1.15,2013-09-17 04:28:00,
2013-09-16 23:30:00,53.9,51.0,30.15,SSE,148,2.0,3.0,90,0.00,,,0.01,Wunderground v.1.15,2013-09-17 04:30:00,
2013-09-16 23:32:00,53.9,51.0,30.15,SSW,195,2.0,3.0,90,0.00,,,0.01,Wunderground v.1.15,2013-09-17 04:32:00,
2013-09-16 23:34:00,53.9,51.0,30.15,SE,143,2.0,3.0,90,0.00,,,0.01,Wunderground v.1.15,2013-09-17 04:34:00,
2013-09-16 23:37:00,53.9,51.3,30.15,SE,136,2.0,3.0,91,0.00,,,0.01,Wunderground v.1.15,2013-09-17 04:37:00,
2013-09-16 23:39:00,53.9,51.3,30.15,SE,141,2.0,3.0,91,0.00,,,0.01,Wunderground v.1.15,2013-09-17 04:39:00,
2013-09-16 23:43:00,53.8,50.9,30.15,SE,143,2.0,3.0,90,0.00,,,0.01,Wunderground v.1.15,2013-09-17 04:43:00,
2013-09-16 23:46:00,53.7,51.1,30.15,SE,145,2.0,3.0,91,0.00,,,0.01,Wunderground v.1.15,2013-09-17 04:46:00,
2013-09-16 23:48:00,53.7,51.1,30.15,SSE,156,2.0,3.0,91,0.00,,,0.01,Wunderground v.1.15,2013-09-17 04:48:00,
2013-09-16 23:52:00,53.7,51.1,30.15,SSE,153,2.0,4.0,91,0.00,,,0.01,Wunderground v.1.15,2013-09-17 04:52:00,
2013-09-16 23:54:00,53.6,51.0,30.15,South,187,2.0,4.0,91,0.00,,,0.01,Wunderground v.1.15,2013-09-17 04:54:00,
2013-09-16 23:56:00,53.6,51.0,30.15,ESE,118,2.0,4.0,91,0.00,,,0.01,Wunderground v.1.15,2013-09-17 04:56:00,
2013-09-16 23:57:00,53.6,51.0,30.15,SE,134,2.0,4.0,91,0.00,,,0.01,Wunderground v.1.15,2013-09-17 04:57:00,
2013-09-16 23:59:00,53.5,50.9,30.15,South,177,2.0,3.0,91,0.00,,,0.01,Wunderground v.1.15,2013-09-17 04:59:00,